createdAt,value
2023-09-11T00:01:41.894Z,4.57
2023-09-11T00:04:08.573Z,4.53
2023-09-11T00:06:35.203Z,4.32
2023-09-11T00:09:01.812Z,4.47
2023-09-11T00:11:28.531Z,4.47
2023-09-11T00:13:55.146Z,3.78
2023-09-11T00:16:21.825Z,23.88
2023-09-11T00:18:48.551Z,32.25
2023-09-11T00:21:15.110Z,13.75
2023-09-11T00:23:41.726Z,9.45
2023-09-11T00:26:08.413Z,6.20
2023-09-11T00:28:34.930Z,5.38
2023-09-11T00:31:01.828Z,5.88
2023-09-11T00:33:28.560Z,5.20
2023-09-11T00:35:55.298Z,4.85
2023-09-11T00:38:21.913Z,5.00
2023-09-11T00:40:48.597Z,4.95
2023-09-11T00:43:15.316Z,5.07
2023-09-11T00:45:42.585Z,5.25
2023-09-11T00:48:12.026Z,4.65
2023-09-11T00:50:38.708Z,4.80
2023-09-11T00:53:07.392Z,5.00
2023-09-11T00:55:34.386Z,4.60
2023-09-11T01:00:27.770Z,4.72
2023-09-11T01:02:54.687Z,4.78
2023-09-11T01:05:23.362Z,3.67
2023-09-11T01:07:50.027Z,5.35
2023-09-11T01:10:16.725Z,4.78
2023-09-11T01:12:43.428Z,4.88
2023-09-11T01:15:11.147Z,5.38
2023-09-11T01:17:47.482Z,4.68
2023-09-11T01:20:42.054Z,4.88
2023-09-11T01:23:42.497Z,4.57
2023-09-11T01:26:09.135Z,3.90
2023-09-11T01:29:08.034Z,4.05
2023-09-11T01:31:37.802Z,3.85
2023-09-11T01:34:06.087Z,3.67
2023-09-11T01:36:33.101Z,3.63
2023-09-11T01:38:59.772Z,4.43
2023-09-11T01:41:37.309Z,3.92
2023-09-11T01:44:42.933Z,4.10
2023-09-11T01:47:13.387Z,4.15
2023-09-11T01:49:40.839Z,4.50
2023-09-11T01:52:08.521Z,3.78
2023-09-11T01:54:37.133Z,4.32
2023-09-11T01:57:06.017Z,4.05
2023-09-11T01:59:33.037Z,4.20
2023-09-11T02:04:26.216Z,4.10
2023-09-11T02:06:52.788Z,3.50
2023-09-11T02:09:20.814Z,3.92
2023-09-11T02:11:47.384Z,4.00
2023-09-11T02:14:13.961Z,4.47
2023-09-11T02:16:40.545Z,3.97
2023-09-11T02:19:07.120Z,4.30
2023-09-11T02:21:33.637Z,3.97
2023-09-11T02:24:00.286Z,4.30
2023-09-11T02:26:28.199Z,3.53
2023-09-11T02:28:54.762Z,4.47
2023-09-11T02:31:22.638Z,5.72
2023-09-11T02:33:49.148Z,4.88
2023-09-11T02:36:15.726Z,4.65
2023-09-11T02:38:42.841Z,4.60
2023-09-11T02:41:10.461Z,4.53
2023-09-11T02:43:37.568Z,4.05
2023-09-11T02:46:04.246Z,4.22
2023-09-11T02:48:30.924Z,4.57
2023-09-11T02:50:57.719Z,4.25
2023-09-11T02:53:24.354Z,4.30
2023-09-11T02:55:51.210Z,4.00
2023-09-11T02:58:17.816Z,4.47
2023-09-11T03:00:44.378Z,4.95
2023-09-11T03:03:11.041Z,4.50
2023-09-11T03:08:03.423Z,4.67
2023-09-11T03:12:57.789Z,4.65
2023-09-11T03:15:33.486Z,4.30
2023-09-11T03:18:00.192Z,4.25
2023-09-11T03:20:26.914Z,4.53
2023-09-11T03:22:53.541Z,5.00
2023-09-11T03:25:20.090Z,4.72
2023-09-11T03:27:46.668Z,5.55
2023-09-11T03:30:13.353Z,4.72
2023-09-11T03:32:40.438Z,5.13
2023-09-11T03:35:07.396Z,4.97
2023-09-11T03:37:33.973Z,4.95
2023-09-11T03:40:00.490Z,5.55
2023-09-11T03:42:27.115Z,4.88
2023-09-11T03:44:53.807Z,5.03
2023-09-11T03:47:21.556Z,4.78
2023-09-11T03:49:48.229Z,4.72
2023-09-11T03:52:14.778Z,5.00
2023-09-11T03:54:41.457Z,5.00
2023-09-11T03:57:08.329Z,5.03
2023-09-11T03:59:34.975Z,4.43
2023-09-11T04:02:01.635Z,5.47
2023-09-11T04:04:28.207Z,5.13
2023-09-11T04:06:54.912Z,4.78
2023-09-11T04:09:22.843Z,5.22
2023-09-11T04:11:49.480Z,4.70
2023-09-11T04:14:16.153Z,5.10
2023-09-11T04:16:43.153Z,5.45
2023-09-11T04:21:37.363Z,4.70
2023-09-11T04:24:04.276Z,4.95
2023-09-11T04:26:30.980Z,5.68
2023-09-11T04:28:57.736Z,4.50
2023-09-11T04:31:24.450Z,4.38
2023-09-11T04:33:51.164Z,5.25
2023-09-11T04:36:17.768Z,4.47
2023-09-11T04:38:44.670Z,4.85
2023-09-11T04:43:37.979Z,4.65
2023-09-11T04:46:05.604Z,4.97
2023-09-11T04:48:32.252Z,4.63
2023-09-11T04:50:59.080Z,4.95
2023-09-11T04:53:25.745Z,5.35
2023-09-11T04:55:52.347Z,4.95
2023-09-11T04:58:18.930Z,4.25
2023-09-11T05:00:45.530Z,4.70
2023-09-11T05:03:12.369Z,5.07
2023-09-11T05:05:39.285Z,5.10
2023-09-11T05:08:06.788Z,4.80
2023-09-11T05:10:33.348Z,5.30
2023-09-11T05:12:59.957Z,5.20
2023-09-11T05:15:26.515Z,5.65
2023-09-11T05:17:53.445Z,5.90
2023-09-11T05:22:46.507Z,5.53
2023-09-11T05:25:13.044Z,5.47
2023-09-11T05:27:42.070Z,5.72
2023-09-11T05:30:09.213Z,5.30
2023-09-11T05:32:35.778Z,5.68
2023-09-11T05:35:02.460Z,5.75
2023-09-11T05:37:28.993Z,5.32
2023-09-11T05:39:55.571Z,4.53
2023-09-11T05:42:22.305Z,4.90
2023-09-11T05:44:48.855Z,5.43
2023-09-11T05:47:16.074Z,6.93
2023-09-11T05:49:42.609Z,6.10
2023-09-11T05:52:09.178Z,6.05
2023-09-11T05:54:35.830Z,5.88
2023-09-11T05:57:03.972Z,4.60
2023-09-11T05:59:30.552Z,5.82
2023-09-11T06:01:57.126Z,5.10
2023-09-11T06:04:23.747Z,6.15
2023-09-11T06:06:50.352Z,5.32
2023-09-11T06:09:16.930Z,5.40
2023-09-11T06:11:43.626Z,5.95
2023-09-11T06:14:10.962Z,6.25
2023-09-11T06:16:37.501Z,5.15
2023-09-11T06:19:04.284Z,5.72
2023-09-11T06:21:31.053Z,5.75
2023-09-11T06:23:57.814Z,5.35
2023-09-11T06:28:51.140Z,5.05
2023-09-11T06:31:18.116Z,5.40
2023-09-11T06:33:44.799Z,5.15
2023-09-11T06:36:11.539Z,5.93
2023-09-11T06:38:38.694Z,5.70
2023-09-11T06:41:05.742Z,5.03
2023-09-11T06:43:32.520Z,5.72
2023-09-11T06:48:26.244Z,4.95
2023-09-11T06:50:53.558Z,5.93
2023-09-11T06:53:20.246Z,5.47
2023-09-11T06:55:50.005Z,7.00
2023-09-11T06:58:16.554Z,5.95
2023-09-11T07:00:43.247Z,5.68
2023-09-11T07:05:36.599Z,6.20
2023-09-11T07:08:03.524Z,6.85
2023-09-11T07:10:40.041Z,6.30
2023-09-11T07:13:08.938Z,6.50
2023-09-11T07:15:35.570Z,6.65
2023-09-11T07:20:29.089Z,6.35
2023-09-11T07:22:55.687Z,6.28
2023-09-11T07:27:48.716Z,43.53
2023-09-11T07:30:15.307Z,29.67
2023-09-11T07:35:09.265Z,12.43
2023-09-11T07:37:35.844Z,5.80
2023-09-11T07:40:02.516Z,6.25
2023-09-11T07:44:56.120Z,5.15
2023-09-11T07:47:22.848Z,6.20
2023-09-11T07:49:50.585Z,5.65
2023-09-11T07:52:17.260Z,7.57
2023-09-11T07:54:44.876Z,6.93
2023-09-11T07:57:11.536Z,5.85
2023-09-11T07:59:38.145Z,7.13
2023-09-11T08:02:04.841Z,4.75
2023-09-11T08:04:34.526Z,5.97
2023-09-11T08:07:01.243Z,4.82
2023-09-11T08:09:27.795Z,4.25
2023-09-11T08:11:54.407Z,6.25
2023-09-11T08:14:21.486Z,5.05
2023-09-11T08:16:48.055Z,4.43
2023-09-11T08:19:15.655Z,5.20
2023-09-11T08:21:42.256Z,4.57
2023-09-11T08:24:09.135Z,6.18
2023-09-11T08:26:35.729Z,6.70
2023-09-11T08:29:02.333Z,5.78
2023-09-11T08:31:28.971Z,13.98
2023-09-11T08:33:56.311Z,5.60
2023-09-11T08:36:23.703Z,5.05
2023-09-11T08:38:50.330Z,5.22
2023-09-11T08:41:18.995Z,6.82
2023-09-11T08:43:45.854Z,17.60
2023-09-11T08:46:16.017Z,4.78
2023-09-11T08:48:45.788Z,4.75
2023-09-11T08:51:20.717Z,3.33
2023-09-11T08:53:51.799Z,5.00
2023-09-11T08:56:18.551Z,3.97
2023-09-11T08:58:45.225Z,5.25
2023-09-11T09:01:12.644Z,4.75
2023-09-11T09:03:40.285Z,4.38
2023-09-11T09:06:07.182Z,4.72
2023-09-11T09:08:34.563Z,4.45
2023-09-11T09:11:02.101Z,5.10
2023-09-11T09:13:29.143Z,4.40
2023-09-11T09:15:55.709Z,4.45
2023-09-11T09:18:22.548Z,4.82
2023-09-11T09:20:49.310Z,4.20
2023-09-11T09:23:18.170Z,4.68
2023-09-11T09:25:44.741Z,7.88
2023-09-11T09:28:27.733Z,5.25
2023-09-11T09:30:56.568Z,4.40
2023-09-11T09:33:23.805Z,4.20
2023-09-11T09:35:50.589Z,4.53
2023-09-11T09:38:20.892Z,4.28
2023-09-11T09:40:47.809Z,4.47
2023-09-11T09:43:19.633Z,3.72
2023-09-11T09:45:46.490Z,4.18
2023-09-11T09:48:21.394Z,3.55
2023-09-11T09:51:00.576Z,3.90
2023-09-11T09:53:38.375Z,4.03
2023-09-11T09:56:06.753Z,3.92
2023-09-11T09:58:39.180Z,4.38
2023-09-11T10:01:07.697Z,3.85
2023-09-11T10:03:46.393Z,3.78
2023-09-11T10:06:17.717Z,4.00
2023-09-11T10:08:45.046Z,5.00
2023-09-11T10:11:31.633Z,4.50
2023-09-11T10:13:59.942Z,4.03
2023-09-11T10:16:28.312Z,3.85
2023-09-11T10:18:56.979Z,25.60
2023-09-11T10:21:24.118Z,3.95
2023-09-11T10:23:51.190Z,3.60
2023-09-11T10:26:21.769Z,4.28
2023-09-11T10:28:52.284Z,3.08
2023-09-11T10:31:25.219Z,2.70
2023-09-11T10:33:57.979Z,3.53
2023-09-11T10:36:28.509Z,3.33
2023-09-11T10:38:57.792Z,3.35
2023-09-11T10:41:25.507Z,3.45
2023-09-11T10:43:52.377Z,2.65
2023-09-11T10:46:33.156Z,3.28
2023-09-11T10:49:00.993Z,4.03
2023-09-11T10:51:28.924Z,4.47
2023-09-11T10:56:22.141Z,3.17
2023-09-11T10:58:52.429Z,3.50
2023-09-11T11:01:20.109Z,11.20
2023-09-11T11:03:49.742Z,5.40
2023-09-11T11:06:22.494Z,3.53
2023-09-11T11:08:49.170Z,3.83
2023-09-11T11:11:25.255Z,3.90
2023-09-11T11:14:11.462Z,3.80
2023-09-11T11:16:38.555Z,3.40
2023-09-11T11:19:05.788Z,3.80
2023-09-11T11:21:39.912Z,4.07
2023-09-11T11:24:09.168Z,3.60
2023-09-11T11:26:40.756Z,3.53
2023-09-11T11:29:07.597Z,3.38
2023-09-11T11:31:36.699Z,3.63
2023-09-11T11:34:05.182Z,3.85
2023-09-11T11:36:31.901Z,4.05
2023-09-11T11:38:58.515Z,3.80
2023-09-11T11:41:25.249Z,4.75
2023-09-11T11:43:52.633Z,5.03
2023-09-11T11:46:20.468Z,5.90
2023-09-11T11:48:47.154Z,4.18
2023-09-11T11:51:13.805Z,3.65
2023-09-11T11:53:41.884Z,3.83
2023-09-11T11:56:10.729Z,3.60
2023-09-11T11:58:37.336Z,19.75
2023-09-11T12:01:06.320Z,3.65
2023-09-11T12:03:45.563Z,3.33
2023-09-11T12:06:12.899Z,3.53
2023-09-11T12:08:40.387Z,2.80
2023-09-11T12:11:08.629Z,3.75
2023-09-11T12:13:48.268Z,2.95
2023-09-11T12:16:16.801Z,3.42
2023-09-11T12:18:43.814Z,4.93
2023-09-11T12:21:10.917Z,3.47
2023-09-11T12:23:37.633Z,4.38
2023-09-11T12:26:05.545Z,3.10
2023-09-11T12:28:32.461Z,3.50
2023-09-11T12:30:59.389Z,2.88
2023-09-11T12:33:28.026Z,3.72
2023-09-11T12:35:55.982Z,3.20
2023-09-11T12:38:28.092Z,3.25
2023-09-11T12:40:57.995Z,2.65
2023-09-11T12:43:26.015Z,15.68
2023-09-11T12:45:53.115Z,7.80
2023-09-11T12:48:20.007Z,3.90
2023-09-11T12:50:46.736Z,3.83
2023-09-11T12:53:13.358Z,3.72
2023-09-11T12:55:40.314Z,3.13
2023-09-11T12:58:09.406Z,3.83
2023-09-11T13:00:36.432Z,8.13
2023-09-11T13:03:04.938Z,3.58
2023-09-11T13:05:32.151Z,3.35
2023-09-11T13:08:00.240Z,3.30
2023-09-11T13:10:28.231Z,3.20
2023-09-11T13:12:54.838Z,3.75
2023-09-11T13:15:21.782Z,3.55
2023-09-11T13:17:48.982Z,3.65
2023-09-11T13:20:15.821Z,3.25
2023-09-11T13:22:43.055Z,3.53
2023-09-11T13:25:10.262Z,3.72
2023-09-11T13:27:37.891Z,3.53
2023-09-11T13:30:05.122Z,3.80
2023-09-11T13:32:31.797Z,3.00
2023-09-11T13:34:58.404Z,3.22
2023-09-11T13:37:25.209Z,3.80
2023-09-11T13:39:51.790Z,3.65
2023-09-11T13:42:18.364Z,3.45
2023-09-11T13:44:45.031Z,3.47
2023-09-11T13:47:11.633Z,3.50
2023-09-11T13:49:38.213Z,3.22
2023-09-11T13:52:05.116Z,3.67
2023-09-11T13:54:31.673Z,2.83
2023-09-11T13:56:58.227Z,3.50
2023-09-11T13:59:24.869Z,3.38
2023-09-11T14:01:51.510Z,3.80
2023-09-11T14:04:18.232Z,3.58
2023-09-11T14:06:45.005Z,4.95
2023-09-11T14:09:11.948Z,4.28
2023-09-11T14:11:39.132Z,3.47
2023-09-11T14:14:05.787Z,3.22
2023-09-11T14:16:32.377Z,3.42
2023-09-11T14:18:59.023Z,3.28
2023-09-11T14:21:25.724Z,3.67
2023-09-11T14:23:52.327Z,3.60
2023-09-11T14:26:18.886Z,3.30
2023-09-11T14:28:45.471Z,2.80
2023-09-11T14:31:12.044Z,4.40
2023-09-11T14:33:38.686Z,4.70
2023-09-11T14:36:05.491Z,3.60
2023-09-11T14:38:32.195Z,3.42
2023-09-11T14:40:58.942Z,3.42
2023-09-11T14:43:25.557Z,4.57
2023-09-11T14:45:52.241Z,3.42
2023-09-11T14:48:19.030Z,3.70
2023-09-11T14:50:45.656Z,3.45
2023-09-11T14:53:16.705Z,3.40
2023-09-11T14:55:43.934Z,3.05
2023-09-11T14:58:10.632Z,3.45
2023-09-11T15:00:37.221Z,3.03
2023-09-11T15:03:04.098Z,7.70
2023-09-11T15:05:31.543Z,5.45
2023-09-11T15:07:58.233Z,3.25
2023-09-11T15:10:24.929Z,3.40
2023-09-11T15:12:51.491Z,3.35
2023-09-11T15:15:18.105Z,3.60
2023-09-11T15:17:44.735Z,3.42
2023-09-11T15:20:11.779Z,3.25
2023-09-11T15:22:39.768Z,3.97
2023-09-11T15:25:06.654Z,4.82
2023-09-11T15:27:33.296Z,6.78
2023-09-11T15:29:59.871Z,13.30
2023-09-11T15:32:26.622Z,9.63
2023-09-11T15:34:53.592Z,7.53
2023-09-11T15:37:20.582Z,11.20
2023-09-11T15:39:47.518Z,6.15
2023-09-11T15:42:14.144Z,5.15
2023-09-11T15:44:40.848Z,8.90
2023-09-11T15:47:07.597Z,7.68
2023-09-11T15:49:34.147Z,6.20
2023-09-11T15:52:00.801Z,5.80
2023-09-11T15:54:27.404Z,4.80
2023-09-11T15:56:54.247Z,7.93
2023-09-11T15:59:21.039Z,7.13
2023-09-11T16:01:47.600Z,10.95
2023-09-11T16:06:39.693Z,5.75
2023-09-11T16:09:06.294Z,5.78
2023-09-11T16:11:32.878Z,5.65
2023-09-11T16:13:59.448Z,6.13
2023-09-11T16:16:26.108Z,5.22
2023-09-11T16:18:53.228Z,3.97
2023-09-11T16:21:29.370Z,3.42
2023-09-11T16:24:04.559Z,3.42
2023-09-11T16:26:31.422Z,4.63
2023-09-11T16:28:58.074Z,3.83
2023-09-11T16:31:24.687Z,3.90
2023-09-11T16:33:51.353Z,3.65
2023-09-11T16:36:18.045Z,3.80
2023-09-11T16:38:44.646Z,3.78
2023-09-11T16:41:11.215Z,4.25
2023-09-11T16:43:37.798Z,3.80
2023-09-11T16:46:04.448Z,5.30
2023-09-11T16:48:31.146Z,8.68
2023-09-11T16:50:57.865Z,9.40
2023-09-11T16:53:24.487Z,8.35
2023-09-11T16:55:50.990Z,4.65
2023-09-11T16:58:17.541Z,6.82
2023-09-11T17:00:44.139Z,5.82
2023-09-11T17:03:12.141Z,5.70
2023-09-11T17:05:38.800Z,7.35
2023-09-11T17:08:05.557Z,8.27
2023-09-11T17:10:32.063Z,8.27
2023-09-11T17:12:58.606Z,6.68
2023-09-11T17:15:25.257Z,8.43
2023-09-11T17:17:52.007Z,16.67
2023-09-11T17:20:18.606Z,10.77
2023-09-11T17:22:45.160Z,8.25
2023-09-11T17:25:11.817Z,5.93
2023-09-11T17:27:38.362Z,6.88
2023-09-11T17:30:05.513Z,6.05
2023-09-11T17:32:32.177Z,5.93
2023-09-11T17:34:58.798Z,5.63
2023-09-11T17:37:25.424Z,8.68
2023-09-11T17:39:52.006Z,23.70
2023-09-11T17:42:18.590Z,21.95
2023-09-11T17:44:45.320Z,18.13
2023-09-11T17:47:11.865Z,12.23
2023-09-11T17:49:38.390Z,8.15
2023-09-11T17:52:05.459Z,7.57
2023-09-11T17:54:32.144Z,9.45
2023-09-11T17:56:58.998Z,9.73
2023-09-11T17:59:25.569Z,8.93
2023-09-11T18:01:52.103Z,7.75
2023-09-11T18:04:18.883Z,9.85
2023-09-11T18:06:45.646Z,27.27
2023-09-11T18:09:12.271Z,32.13
2023-09-11T18:11:38.844Z,20.50
2023-09-11T18:16:32.010Z,7.25
2023-09-11T18:21:25.116Z,8.35
2023-09-11T18:23:53.969Z,9.15
2023-09-11T18:26:20.646Z,6.85
2023-09-11T18:31:13.778Z,21.33
2023-09-11T18:33:40.617Z,30.40
2023-09-11T18:36:07.426Z,12.35
2023-09-11T18:38:34.044Z,7.30
2023-09-11T18:43:27.537Z,5.97
2023-09-11T18:45:54.455Z,6.18
2023-09-11T18:48:21.241Z,6.05
2023-09-11T18:50:49.646Z,6.18
2023-09-11T18:53:16.393Z,6.57
2023-09-11T18:58:09.394Z,5.97
2023-09-11T19:00:39.186Z,6.28
2023-09-11T19:03:05.985Z,6.45
2023-09-11T19:05:33.301Z,6.25
2023-09-11T19:07:59.880Z,5.18
2023-09-11T19:10:26.511Z,5.78
2023-09-11T19:12:53.079Z,5.10
2023-09-11T19:15:19.744Z,5.45
2023-09-11T19:20:12.942Z,6.00
2023-09-11T19:22:39.492Z,6.30
2023-09-11T19:25:06.564Z,5.78
2023-09-11T19:27:33.085Z,5.93
2023-09-11T19:29:59.597Z,5.88
2023-09-11T19:32:26.191Z,19.98
2023-09-11T19:34:52.849Z,23.75
2023-09-11T19:37:19.456Z,21.88
2023-09-11T19:39:46.015Z,13.88
2023-09-11T19:42:12.886Z,9.10
2023-09-11T19:44:39.496Z,7.72
2023-09-11T19:47:06.176Z,8.13
2023-09-11T19:49:32.698Z,7.45
2023-09-11T19:51:59.269Z,6.72
2023-09-11T19:54:25.866Z,11.13
2023-09-11T19:56:52.487Z,17.70
2023-09-11T19:59:18.974Z,20.40
2023-09-11T20:01:45.500Z,14.82
2023-09-11T20:04:12.260Z,7.88
2023-09-11T20:09:06.685Z,4.78
2023-09-11T20:11:34.565Z,5.47
2023-09-11T20:14:02.282Z,4.95
2023-09-11T20:16:29.302Z,4.53
2023-09-11T20:18:55.956Z,4.40
2023-09-11T20:21:22.779Z,4.25
2023-09-11T20:23:52.831Z,3.97
2023-09-11T20:26:19.444Z,4.25
2023-09-11T20:28:46.519Z,4.70
2023-09-11T20:31:16.303Z,7.32
2023-09-11T20:33:44.493Z,19.35
2023-09-11T20:36:15.675Z,10.85
2023-09-11T20:38:43.462Z,8.48
2023-09-11T20:41:10.249Z,5.80
2023-09-11T20:43:37.578Z,5.63
2023-09-11T20:46:05.312Z,4.65
2023-09-11T20:51:22.627Z,5.22
2023-09-11T20:56:16.044Z,29.27
2023-09-11T20:58:43.073Z,17.50
2023-09-11T21:01:10.266Z,11.57
2023-09-11T21:03:37.258Z,9.25
2023-09-11T21:06:05.672Z,5.72
2023-09-11T21:08:32.409Z,5.18
2023-09-11T21:10:59.679Z,4.80
2023-09-11T21:13:27.308Z,4.35
2023-09-11T21:15:53.878Z,4.10
2023-09-11T21:18:20.872Z,4.43
2023-09-11T21:20:47.983Z,3.85
2023-09-11T21:23:14.539Z,4.97
2023-09-11T21:25:41.077Z,4.93
2023-09-11T21:28:07.670Z,4.95
2023-09-11T21:30:34.698Z,4.55
2023-09-11T21:33:01.373Z,4.57
2023-09-11T21:35:28.025Z,4.82
2023-09-11T21:37:54.613Z,4.82
2023-09-11T21:40:21.237Z,4.10
2023-09-11T21:42:47.760Z,5.50
2023-09-11T21:45:15.417Z,11.82
2023-09-11T21:47:42.070Z,11.13
2023-09-11T21:50:08.846Z,6.68
2023-09-11T21:52:35.587Z,6.03
2023-09-11T21:55:02.247Z,5.18
2023-09-11T21:57:29.028Z,4.65
2023-09-11T21:59:56.642Z,4.70
2023-09-11T22:02:23.329Z,5.05
2023-09-11T22:04:50.311Z,3.97
2023-09-11T22:07:17.815Z,4.10
2023-09-11T22:09:44.509Z,4.20
2023-09-11T22:12:11.887Z,4.85
2023-09-11T22:14:40.223Z,4.03
2023-09-11T22:17:10.329Z,4.97
2023-09-11T22:19:38.574Z,5.20
2023-09-11T22:22:05.220Z,5.95
2023-09-11T22:24:31.835Z,5.03
2023-09-11T22:27:00.817Z,5.22
2023-09-11T22:29:33.120Z,5.03
2023-09-11T22:31:59.750Z,4.70
2023-09-11T22:34:26.396Z,5.38
2023-09-11T22:36:53.250Z,11.20
2023-09-11T22:39:19.916Z,29.27
2023-09-11T22:41:47.518Z,23.20
2023-09-11T22:44:14.106Z,13.88
2023-09-11T22:46:40.844Z,8.07
2023-09-11T22:49:07.435Z,6.82
2023-09-11T22:51:34.097Z,5.38
2023-09-11T22:54:00.839Z,5.10
2023-09-11T22:56:27.514Z,4.32
2023-09-11T22:58:54.070Z,4.50
2023-09-11T23:01:27.827Z,5.00
2023-09-11T23:03:55.600Z,4.50
2023-09-11T23:06:22.304Z,4.40
2023-09-11T23:08:50.297Z,3.72
2023-09-11T23:11:16.928Z,4.60
2023-09-11T23:13:43.519Z,4.72
2023-09-11T23:16:10.102Z,4.95
2023-09-11T23:18:36.721Z,4.40
2023-09-11T23:21:03.567Z,4.55
2023-09-11T23:26:05.304Z,4.72
2023-09-11T23:28:31.842Z,4.57
2023-09-11T23:30:59.099Z,4.32
2023-09-11T23:33:26.741Z,4.35
2023-09-11T23:35:53.637Z,5.07
2023-09-11T23:38:20.237Z,4.47
2023-09-11T23:40:46.756Z,4.53
2023-09-11T23:43:13.304Z,4.80
2023-09-11T23:45:40.005Z,4.55
2023-09-11T23:48:06.951Z,4.53
2023-09-11T23:53:00.037Z,4.53
2023-09-11T23:55:26.680Z,4.88
2023-09-11T23:57:53.221Z,4.18
